Time;durP1;ratioP1;P1;durP2;ratioP2;P2;SDS_P1;SDS_P2;PMS_P1;PMS_P2;Temp;Humidity;BMP_temperature;BMP_pressure;BME280_temperature;BME280_humidity;BME280_pressure;Samples;Min_cycle;Max_cycle;Signal;HPM_P1;HPM_P2
2023/01/23 00:01:28;;;;;;;27.00;13.83;;;3.20;99.90;;;;;;5050249;28;20237;-68
2023/01/23 00:03:56;;;;;;;29.77;15.07;;;3.20;99.90;;;;;;5045072;28;20263;-68
2023/01/23 00:06:23;;;;;;;29.47;14.07;;;3.10;99.90;;;;;;5053320;28;20255;-69
2023/01/23 00:08:50;;;;;;;24.53;14.37;;;3.20;99.90;;;;;;5051446;28;20540;-68
2023/01/23 00:11:20;;;;;;;29.37;13.47;;;3.20;99.90;;;;;;5032037;28;21302;-69
2023/01/23 00:13:47;;;;;;;25.60;15.33;;;3.10;99.90;;;;;;5043386;28;20664;-68
2023/01/23 00:16:16;;;;;;;31.63;14.23;;;3.20;99.90;;;;;;5050016;28;20204;-68
2023/01/23 00:18:43;;;;;;;30.80;14.57;;;3.20;99.90;;;;;;5050936;28;20260;-69
2023/01/23 00:21:18;;;;;;;27.40;15.23;;;3.10;99.90;;;;;;5048734;28;20622;-69
2023/01/23 00:23:48;;;;;;;26.20;14.43;;;3.10;99.90;;;;;;5043884;28;20304;-68
2023/01/23 00:26:18;;;;;;;30.90;14.13;;;3.10;99.90;;;;;;5047421;28;20694;-68
2023/01/23 00:28:46;;;;;;;33.10;15.93;;;3.10;99.90;;;;;;5045342;28;20201;-69
2023/01/23 00:31:16;;;;;;;26.90;14.37;;;3.10;99.90;;;;;;5047173;28;20216;-68
2023/01/23 00:33:43;;;;;;;33.23;16.00;;;3.10;99.90;;;;;;5050498;28;20213;-69
2023/01/23 00:36:11;;;;;;;29.63;14.67;;;3.10;99.90;;;;;;5044432;28;20202;-68
2023/01/23 00:38:38;;;;;;;33.00;15.63;;;3.10;99.90;;;;;;5047997;28;20201;-68
2023/01/23 00:41:05;;;;;;;30.63;15.77;;;3.10;99.90;;;;;;5048608;28;20689;-68
2023/01/23 00:43:32;;;;;;;28.20;14.43;;;3.10;99.90;;;;;;5028903;28;20206;-68
2023/01/23 00:45:59;;;;;;;26.87;15.63;;;3.10;99.90;;;;;;5051228;28;20220;-70
2023/01/23 00:48:26;;;;;;;29.03;15.53;;;3.10;99.90;;;;;;5047064;28;20694;-69
2023/01/23 00:50:53;;;;;;;33.23;16.50;;;3.10;99.90;;;;;;5026551;28;20215;-68
2023/01/23 00:53:20;;;;;;;33.27;15.17;;;3.10;99.90;;;;;;5050545;28;20255;-68
2023/01/23 00:55:47;;;;;;;35.43;16.10;;;3.10;99.90;;;;;;5049531;28;20265;-69
2023/01/23 00:58:14;;;;;;;33.10;14.87;;;3.10;99.90;;;;;;5052647;28;20212;-68
2023/01/23 01:00:40;;;;;;;35.80;15.67;;;3.10;99.90;;;;;;5045515;28;20209;-68
2023/01/23 01:03:07;;;;;;;31.97;15.33;;;3.10;99.90;;;;;;5050400;28;20656;-69
2023/01/23 01:05:34;;;;;;;29.80;15.60;;;3.10;99.90;;;;;;5041767;28;20246;-68
2023/01/23 01:08:01;;;;;;;34.17;15.53;;;3.10;99.90;;;;;;5039606;28;20197;-68
2023/01/23 01:10:28;;;;;;;34.03;16.47;;;3.10;99.90;;;;;;5044545;28;20217;-68
2023/01/23 01:12:56;;;;;;;33.17;16.93;;;3.10;99.90;;;;;;5047001;28;20247;-68
2023/01/23 01:15:23;;;;;;;35.73;16.80;;;3.10;99.90;;;;;;5051438;28;20210;-68
2023/01/23 01:17:52;;;;;;;36.60;17.60;;;3.10;99.90;;;;;;5043638;28;20753;-68
2023/01/23 01:20:22;;;;;;;32.73;15.90;;;3.10;99.90;;;;;;5044536;28;20241;-68
2023/01/23 01:22:49;;;;;;;38.30;17.27;;;3.10;99.90;;;;;;5043992;28;20196;-68
2023/01/23 01:25:17;;;;;;;33.67;16.83;;;3.10;99.90;;;;;;5046431;28;20291;-69
2023/01/23 01:27:44;;;;;;;36.27;16.83;;;3.10;99.90;;;;;;5050851;28;20205;-68
2023/01/23 01:30:11;;;;;;;33.40;16.70;;;3.10;99.90;;;;;;5041040;28;20265;-69
2023/01/23 01:32:40;;;;;;;31.07;15.83;;;3.10;99.90;;;;;;5052407;28;20687;-68
2023/01/23 01:35:08;;;;;;;31.57;16.27;;;3.10;99.90;;;;;;5029850;28;20233;-68
2023/01/23 01:37:36;;;;;;;33.10;17.20;;;3.10;99.90;;;;;;5044511;28;20403;-68
2023/01/23 01:40:05;;;;;;;33.07;17.30;;;3.10;99.90;;;;;;5041822;28;20739;-68
2023/01/23 01:42:39;;;;;;;41.47;17.63;;;3.10;99.90;;;;;;5047064;28;20300;-68
2023/01/23 01:45:06;;;;;;;33.33;16.43;;;3.10;99.90;;;;;;5045206;28;20219;-68
2023/01/23 01:47:33;;;;;;;33.70;16.43;;;3.10;99.90;;;;;;5045905;28;20225;-68
2023/01/23 01:50:03;;;;;;;31.40;16.10;;;3.20;99.90;;;;;;5048781;28;20298;-69
2023/01/23 01:52:30;;;;;;;35.53;16.13;;;3.10;99.90;;;;;;5027454;28;20213;-69
2023/01/23 01:55:01;;;;;;;35.50;16.87;;;3.20;99.90;;;;;;5029450;28;20678;-68
2023/01/23 01:57:29;;;;;;;33.23;17.60;;;3.20;99.90;;;;;;5044501;28;20248;-69
2023/01/23 02:00:15;;;;;;;32.07;15.30;;;3.10;99.90;;;;;;5048562;28;20206;-68
2023/01/23 02:02:50;;;;;;;36.07;16.97;;;3.10;99.90;;;;;;5051323;28;20275;-68
2023/01/23 02:05:20;;;;;;;34.60;15.80;;;3.10;99.90;;;;;;5047095;28;20228;-68
2023/01/23 02:07:53;;;;;;;35.30;17.83;;;3.10;99.90;;;;;;5047436;28;20755;-69
2023/01/23 02:10:21;;;;;;;36.47;17.33;;;3.10;99.90;;;;;;5047515;28;20203;-69
2023/01/23 02:12:49;;;;;;;37.43;17.73;;;3.10;99.90;;;;;;5048213;28;20622;-68
2023/01/23 02:15:17;;;;;;;38.63;17.20;;;3.10;99.90;;;;;;5044714;28;20213;-68
2023/01/23 02:17:45;;;;;;;37.63;18.07;;;3.10;99.90;;;;;;5043600;28;20227;-68
2023/01/23 02:20:22;;;;;;;36.00;17.17;;;3.10;99.90;;;;;;5044193;28;20747;-68
2023/01/23 02:22:54;;;;;;;38.33;17.07;;;3.10;99.90;;;;;;5046674;28;20211;-68
2023/01/23 02:25:41;;;;;;;31.60;17.07;;;3.10;99.90;;;;;;5045853;28;20217;-69
2023/01/23 02:28:13;;;;;;;33.57;16.27;;;3.10;99.90;;;;;;5039045;28;20239;-68
2023/01/23 02:30:45;;;;;;;33.63;17.80;;;3.10;99.90;;;;;;5032542;28;20235;-69
2023/01/23 02:33:24;;;;;;;40.90;16.93;;;3.10;99.90;;;;;;5038159;28;20217;-68
2023/01/23 02:35:50;;;;;;;37.40;16.80;;;3.10;99.90;;;;;;5050117;28;20687;-69
2023/01/23 02:38:21;;;;;;;34.23;17.07;;;3.10;99.90;;;;;;5042749;28;20201;-68
2023/01/23 02:40:48;;;;;;;30.90;16.03;;;3.10;99.90;;;;;;5051201;28;20233;-68
2023/01/23 02:43:18;;;;;;;36.80;18.03;;;3.10;99.90;;;;;;5042046;28;20211;-68
2023/01/23 02:45:45;;;;;;;35.50;16.93;;;3.10;99.90;;;;;;5048635;28;20254;-68
2023/01/23 02:48:12;;;;;;;33.80;16.80;;;3.10;99.90;;;;;;5046921;28;20728;-68
2023/01/23 02:50:39;;;;;;;37.17;17.23;;;3.20;99.90;;;;;;5052052;28;20623;-69
2023/01/23 02:53:06;;;;;;;37.00;18.20;;;3.20;99.90;;;;;;5051914;28;20296;-68
2023/01/23 02:55:33;;;;;;;35.30;17.83;;;3.20;99.90;;;;;;5050040;28;20220;-68
2023/01/23 03:00:46;;;;;;;39.20;17.63;;;3.20;99.90;;;;;;5051444;28;20240;-68
2023/01/23 03:03:14;;;;;;;33.97;17.70;;;3.20;99.90;;;;;;5054888;28;20246;-68
2023/01/23 03:05:41;;;;;;;37.27;18.43;;;3.20;99.90;;;;;;5043431;28;20702;-69
2023/01/23 03:08:08;;;;;;;36.47;17.40;;;3.20;99.90;;;;;;5065541;28;20672;-69
2023/01/23 03:10:35;;;;;;;34.13;16.93;;;3.20;99.90;;;;;;5052446;28;20296;-68
2023/01/23 03:13:03;;;;;;;33.23;16.50;;;3.20;99.90;;;;;;5048018;28;20197;-68
2023/01/23 03:15:30;;;;;;;39.43;18.77;;;3.20;99.90;;;;;;5036993;28;20319;-68
2023/01/23 03:17:57;;;;;;;29.70;16.40;;;3.20;99.90;;;;;;5051420;28;20256;-69
2023/01/23 03:20:25;;;;;;;37.70;17.93;;;3.20;99.90;;;;;;5047249;28;20212;-68
2023/01/23 03:22:52;;;;;;;32.47;16.07;;;3.20;99.90;;;;;;5052927;28;20209;-68
2023/01/23 03:25:19;;;;;;;40.43;18.30;;;3.20;99.90;;;;;;5045650;28;20208;-68
2023/01/23 03:27:46;;;;;;;37.60;17.90;;;3.10;99.90;;;;;;5054938;28;20211;-68
2023/01/23 03:30:15;;;;;;;39.43;17.73;;;3.10;99.90;;;;;;5050637;28;20197;-68
2023/01/23 03:32:43;;;;;;;37.60;18.43;;;3.20;99.90;;;;;;5057494;28;20229;-69
2023/01/23 03:35:15;;;;;;;39.33;18.00;;;3.10;99.90;;;;;;5045843;28;20289;-68
2023/01/23 03:37:43;;;;;;;37.13;17.77;;;3.10;99.90;;;;;;5046357;28;20384;-68
2023/01/23 03:43:09;;;;;;;36.30;17.80;;;3.10;99.90;;;;;;5041309;28;20678;-68
2023/01/23 03:45:36;;;;;;;38.33;18.00;;;3.10;99.90;;;;;;5050350;28;20681;-69
2023/01/23 03:48:03;;;;;;;38.93;18.37;;;3.10;99.90;;;;;;5049151;28;20249;-68
2023/01/23 03:50:29;;;;;;;37.27;19.00;;;3.10;99.90;;;;;;5051221;28;20209;-68
2023/01/23 03:52:56;;;;;;;36.20;18.27;;;3.10;99.90;;;;;;5043072;28;20216;-69
2023/01/23 03:55:23;;;;;;;36.53;18.37;;;3.10;99.90;;;;;;5049393;28;20667;-68
2023/01/23 03:57:49;;;;;;;41.17;17.90;;;3.10;99.90;;;;;;5049318;28;20765;-68
2023/01/23 04:00:16;;;;;;;35.77;16.77;;;3.10;99.90;;;;;;5029309;28;20200;-68
2023/01/23 04:02:44;;;;;;;40.57;18.60;;;3.10;99.90;;;;;;5046707;28;20662;-68
2023/01/23 04:05:10;;;;;;;38.30;17.30;;;3.10;99.90;;;;;;5043907;28;20258;-68
2023/01/23 04:07:37;;;;;;;35.07;17.73;;;3.10;99.90;;;;;;5053966;28;20232;-69
2023/01/23 04:10:04;;;;;;;37.03;19.03;;;3.10;99.90;;;;;;5049797;28;20204;-68
2023/01/23 04:12:31;;;;;;;35.53;18.03;;;3.10;99.90;;;;;;5041515;28;20212;-70
2023/01/23 04:14:57;;;;;;;38.47;18.27;;;3.10;99.90;;;;;;5051491;28;20207;-68
2023/01/23 04:17:24;;;;;;;37.63;19.87;;;3.10;99.90;;;;;;5046868;28;20225;-68
2023/01/23 04:19:51;;;;;;;35.80;18.23;;;3.10;99.90;;;;;;5048739;28;20307;-68
2023/01/23 04:22:17;;;;;;;39.07;18.90;;;3.20;99.90;;;;;;5044998;28;20233;-68
2023/01/23 04:24:44;;;;;;;37.63;18.13;;;3.10;99.90;;;;;;5054019;28;20223;-68
2023/01/23 04:27:11;;;;;;;39.40;18.93;;;3.10;99.90;;;;;;5028964;28;20308;-68
2023/01/23 04:29:37;;;;;;;35.97;17.60;;;3.10;99.90;;;;;;5049559;28;20202;-69
2023/01/23 04:32:04;;;;;;;35.30;18.20;;;3.10;99.90;;;;;;5044461;28;20251;-69
2023/01/23 04:34:31;;;;;;;39.80;18.13;;;3.10;99.90;;;;;;5031485;28;20670;-68
2023/01/23 04:36:58;;;;;;;35.70;18.30;;;3.10;99.90;;;;;;5048773;28;20220;-68
2023/01/23 04:39:25;;;;;;;38.13;18.60;;;3.10;99.90;;;;;;5010104;28;1071837;-68
2023/01/23 04:41:51;;;;;;;34.53;18.00;;;3.10;99.90;;;;;;5045197;28;20205;-68
2023/01/23 04:44:21;;;;;;;40.67;17.93;;;3.10;99.90;;;;;;5045462;28;20205;-68
2023/01/23 04:46:52;;;;;;;37.27;18.00;;;3.10;99.90;;;;;;5047969;28;20237;-68
2023/01/23 04:49:23;;;;;;;37.23;18.93;;;3.10;99.90;;;;;;5033698;28;20291;-68
2023/01/23 04:51:51;;;;;;;37.57;18.47;;;3.10;99.90;;;;;;5026120;28;20206;-69
2023/01/23 04:54:18;;;;;;;35.53;17.83;;;3.10;99.90;;;;;;5051200;28;20205;-69
2023/01/23 04:56:45;;;;;;;36.07;18.27;;;3.10;99.90;;;;;;5051710;28;21036;-69
2023/01/23 04:59:14;;;;;;;34.67;18.77;;;3.10;99.90;;;;;;5047984;28;20206;-69
2023/01/23 05:01:42;;;;;;;38.00;18.23;;;3.10;99.90;;;;;;5049207;28;20629;-68
2023/01/23 05:04:08;;;;;;;34.07;17.93;;;3.10;99.90;;;;;;5028884;28;20684;-69
2023/01/23 05:06:35;;;;;;;33.87;17.53;;;3.10;99.90;;;;;;5032305;28;20242;-68
2023/01/23 05:09:02;;;;;;;34.77;17.53;;;3.10;99.90;;;;;;5043536;28;20216;-69
2023/01/23 05:11:29;;;;;;;39.47;18.63;;;3.10;99.90;;;;;;5046787;28;20210;-68
2023/01/23 05:13:56;;;;;;;35.93;17.93;;;3.10;99.90;;;;;;5046534;28;20205;-69
2023/01/23 05:16:22;;;;;;;34.97;17.67;;;3.10;99.90;;;;;;5052183;28;20201;-68
2023/01/23 05:18:49;;;;;;;36.53;17.63;;;3.10;99.90;;;;;;5042207;28;20221;-68
2023/01/23 05:21:16;;;;;;;34.03;18.47;;;3.10;99.90;;;;;;5049819;28;20201;-68
2023/01/23 05:23:42;;;;;;;36.13;18.07;;;3.10;99.90;;;;;;5051402;28;20208;-69
2023/01/23 05:26:09;;;;;;;35.00;18.43;;;3.10;99.90;;;;;;5027745;28;20214;-68
2023/01/23 05:28:36;;;;;;;37.80;17.97;;;3.10;99.90;;;;;;5047543;28;20231;-68
2023/01/23 05:31:02;;;;;;;36.87;17.60;;;3.10;99.90;;;;;;5047955;28;20204;-69
2023/01/23 05:33:29;;;;;;;37.13;18.60;;;3.10;99.90;;;;;;5028032;28;20232;-68
2023/01/23 05:36:00;;;;;;;31.37;17.27;;;3.10;99.90;;;;;;5048628;28;20528;-68
2023/01/23 05:38:26;;;;;;;43.10;19.23;;;3.10;99.90;;;;;;5026252;28;20192;-69
2023/01/23 05:40:53;;;;;;;35.53;18.23;;;3.10;99.90;;;;;;5034411;28;20229;-69
2023/01/23 05:43:20;;;;;;;38.90;17.27;;;3.20;99.90;;;;;;5042169;28;20201;-69
2023/01/23 05:45:46;;;;;;;39.13;18.30;;;3.10;99.90;;;;;;5047479;28;20288;-68
2023/01/23 05:48:13;;;;;;;37.40;19.37;;;3.20;99.90;;;;;;5045116;28;20233;-68
2023/01/23 05:50:40;;;;;;;36.30;18.03;;;3.20;99.90;;;;;;5042437;28;20208;-68
2023/01/23 05:53:07;;;;;;;41.53;19.17;;;3.20;99.90;;;;;;5045390;28;20201;-68
2023/01/23 05:55:36;;;;;;;32.47;17.73;;;3.20;99.90;;;;;;5044274;28;20601;-68
2023/01/23 05:58:02;;;;;;;35.83;17.77;;;3.20;99.90;;;;;;5031733;28;20220;-68
2023/01/23 06:00:29;;;;;;;40.50;18.80;;;3.20;99.90;;;;;;5043365;28;20756;-68
2023/01/23 06:02:56;;;;;;;41.37;17.77;;;3.20;99.90;;;;;;5048893;28;20572;-68
2023/01/23 06:05:23;;;;;;;38.60;19.40;;;3.20;99.90;;;;;;5050255;28;20199;-69
2023/01/23 06:07:49;;;;;;;41.27;18.60;;;3.20;99.90;;;;;;5048801;28;20315;-69
2023/01/23 06:10:16;;;;;;;42.77;19.50;;;3.20;99.90;;;;;;5047034;28;20236;-68
2023/01/23 06:12:43;;;;;;;40.87;19.33;;;3.10;99.90;;;;;;5047704;28;20262;-68
2023/01/23 06:15:10;;;;;;;37.83;18.97;;;3.20;99.90;;;;;;5050135;28;20248;-68
2023/01/23 06:17:37;;;;;;;36.40;18.63;;;3.20;99.90;;;;;;5036408;28;20305;-68
2023/01/23 06:20:04;;;;;;;39.23;18.33;;;3.20;99.90;;;;;;5046164;28;20655;-69
2023/01/23 06:22:31;;;;;;;44.67;20.47;;;3.20;99.90;;;;;;5026925;28;20211;-69
2023/01/23 06:24:58;;;;;;;39.00;19.10;;;3.20;99.90;;;;;;5045876;28;20750;-68
2023/01/23 06:27:25;;;;;;;43.20;20.17;;;3.20;99.90;;;;;;5043187;28;20670;-68
2023/01/23 06:29:51;;;;;;;44.53;19.80;;;3.20;99.90;;;;;;5045099;28;20201;-68
2023/01/23 06:32:18;;;;;;;41.50;19.47;;;3.20;99.90;;;;;;5044761;28;20221;-69
2023/01/23 06:34:45;;;;;;;38.73;19.87;;;3.20;99.90;;;;;;5048061;28;20636;-69
2023/01/23 06:37:11;;;;;;;46.23;20.43;;;3.20;99.90;;;;;;5032697;28;20197;-69
2023/01/23 06:39:38;;;;;;;45.60;21.17;;;3.20;99.90;;;;;;5046971;28;20594;-69
2023/01/23 06:42:08;;;;;;;41.63;21.53;;;3.10;99.90;;;;;;5044656;28;20196;-69
2023/01/23 06:44:36;;;;;;;44.97;22.13;;;3.10;99.90;;;;;;5044213;28;20203;-69
2023/01/23 06:47:03;;;;;;;39.97;19.90;;;3.10;99.90;;;;;;5042709;28;20232;-68
2023/01/23 06:49:29;;;;;;;46.37;21.60;;;3.10;99.90;;;;;;5043729;28;20211;-69
2023/01/23 06:51:56;;;;;;;49.00;23.65;;;3.10;99.90;;;;;;5044064;28;20464;-68
2023/01/23 06:54:23;;;;;;;44.80;21.40;;;3.20;99.90;;;;;;5043024;28;20196;-68
2023/01/23 06:56:50;;;;;;;51.17;27.17;;;3.20;99.90;;;;;;5041359;28;20456;-68
2023/01/23 06:59:17;;;;;;;43.80;22.00;;;3.40;99.90;;;;;;5043089;28;20464;-68
2023/01/23 07:01:43;;;;;;;46.97;22.30;;;3.40;99.90;;;;;;5044709;28;20582;-68
2023/01/23 07:04:10;;;;;;;44.10;20.30;;;3.40;99.90;;;;;;5045213;28;20210;-69
2023/01/23 07:06:37;;;;;;;36.93;19.17;;;3.30;99.90;;;;;;5020580;28;20216;-68
2023/01/23 07:09:04;;;;;;;41.27;21.53;;;3.30;99.90;;;;;;5046462;28;20335;-68
2023/01/23 07:11:30;;;;;;;43.77;20.47;;;3.30;99.90;;;;;;5041479;28;20219;-69
2023/01/23 07:13:57;;;;;;;46.47;20.83;;;3.20;99.90;;;;;;5040316;28;20576;-68
2023/01/23 07:16:24;;;;;;;47.53;21.80;;;3.30;99.90;;;;;;5047255;28;20206;-68
2023/01/23 07:18:51;;;;;;;42.13;21.23;;;3.20;99.90;;;;;;5037556;28;20205;-69
2023/01/23 07:21:17;;;;;;;44.93;21.23;;;3.30;99.90;;;;;;5047155;28;20617;-68
2023/01/23 07:23:44;;;;;;;46.80;20.73;;;3.20;99.90;;;;;;5045411;28;20202;-69
2023/01/23 07:26:11;;;;;;;46.17;21.33;;;3.30;99.90;;;;;;5027521;28;20214;-68
2023/01/23 07:28:38;;;;;;;45.03;21.53;;;3.30;99.90;;;;;;5041148;28;20731;-70
2023/01/23 07:31:05;;;;;;;46.60;22.77;;;3.30;99.90;;;;;;5041390;28;20204;-68
2023/01/23 07:33:32;;;;;;;46.17;22.43;;;3.30;99.90;;;;;;5046812;28;20217;-68
2023/01/23 07:35:59;;;;;;;54.17;23.63;;;3.30;99.90;;;;;;5039686;28;20632;-68
2023/01/23 07:38:26;;;;;;;47.00;22.57;;;3.30;99.90;;;;;;5046452;28;20672;-69
2023/01/23 07:40:57;;;;;;;52.17;23.93;;;3.40;99.90;;;;;;5051479;28;20261;-68
2023/01/23 07:43:24;;;;;;;46.30;22.77;;;3.40;99.90;;;;;;5045584;28;20244;-68
2023/01/23 07:45:51;;;;;;;48.43;22.80;;;3.40;99.90;;;;;;5049692;28;20676;-68
2023/01/23 07:48:17;;;;;;;45.50;22.97;;;3.40;99.90;;;;;;5051763;28;20723;-68
2023/01/23 07:50:44;;;;;;;51.40;22.13;;;3.40;99.90;;;;;;5028000;28;20241;-68
2023/01/23 07:53:11;;;;;;;48.37;24.17;;;3.40;99.90;;;;;;5035060;28;20205;-68
2023/01/23 07:55:38;;;;;;;54.87;23.60;;;3.40;99.90;;;;;;5053293;28;20320;-68
2023/01/23 07:58:04;;;;;;;46.87;22.23;;;3.40;99.90;;;;;;5047352;28;20657;-68
2023/01/23 08:00:31;;;;;;;54.03;23.37;;;3.40;99.90;;;;;;5044489;28;20220;-68
2023/01/23 08:02:58;;;;;;;56.37;24.63;;;3.40;99.90;;;;;;5051495;28;20317;-68
2023/01/23 08:05:25;;;;;;;48.43;23.87;;;3.40;99.90;;;;;;5049383;28;20209;-68
2023/01/23 08:07:52;;;;;;;47.73;22.63;;;3.40;99.90;;;;;;5044643;28;20693;-68
2023/01/23 08:10:37;;;;;;;48.20;22.53;;;3.40;99.90;;;;;;5048735;28;20661;-68
2023/01/23 08:13:04;;;;;;;48.00;21.93;;;3.40;99.90;;;;;;5048465;28;20244;-68
2023/01/23 08:15:31;;;;;;;50.00;22.20;;;3.40;99.90;;;;;;5026086;28;20329;-68
2023/01/23 08:17:58;;;;;;;50.83;23.17;;;3.40;99.90;;;;;;5047964;28;20259;-68
2023/01/23 08:20:24;;;;;;;51.20;23.17;;;3.40;99.90;;;;;;5042747;28;20292;-68
2023/01/23 08:22:51;;;;;;;54.13;24.10;;;3.50;99.90;;;;;;5050902;28;20299;-68
2023/01/23 08:25:18;;;;;;;48.37;24.27;;;3.50;99.90;;;;;;5048563;28;20206;-68
2023/01/23 08:27:44;;;;;;;48.03;23.03;;;3.50;99.90;;;;;;5053482;28;20591;-68
2023/01/23 08:30:11;;;;;;;49.63;23.43;;;3.50;99.90;;;;;;5041524;28;20213;-68
2023/01/23 08:32:38;;;;;;;52.27;25.17;;;3.50;99.90;;;;;;5044711;28;20221;-68
2023/01/23 08:35:05;;;;;;;43.63;23.17;;;3.50;99.90;;;;;;5049696;28;20205;-67
2023/01/23 08:37:33;;;;;;;45.63;23.43;;;3.50;99.90;;;;;;5046440;28;20206;-67
2023/01/23 08:40:00;;;;;;;44.90;22.83;;;3.50;99.90;;;;;;5045922;28;20608;-68
2023/01/23 08:42:26;;;;;;;47.97;23.17;;;3.50;99.90;;;;;;5049415;28;20292;-67
2023/01/23 08:44:54;;;;;;;46.93;22.80;;;3.50;99.90;;;;;;5049257;28;20282;-67
2023/01/23 08:47:21;;;;;;;53.87;22.27;;;3.60;99.90;;;;;;5047240;28;20241;-67
2023/01/23 08:49:47;;;;;;;43.43;23.23;;;3.70;99.90;;;;;;5048346;28;20209;-68
2023/01/23 08:52:14;;;;;;;44.90;22.53;;;3.70;99.90;;;;;;5043296;28;20217;-69
2023/01/23 08:54:41;;;;;;;42.97;22.13;;;3.80;99.90;;;;;;5053355;28;20219;-67
2023/01/23 08:57:07;;;;;;;45.00;22.23;;;3.80;99.90;;;;;;5050980;28;20215;-67
2023/01/23 08:59:34;;;;;;;48.40;22.87;;;3.90;99.90;;;;;;5048946;28;20288;-67
2023/01/23 09:02:01;;;;;;;42.70;22.57;;;3.90;99.90;;;;;;5048984;28;20253;-67
2023/01/23 09:04:28;;;;;;;47.70;21.67;;;3.90;99.90;;;;;;5044363;28;20205;-67
2023/01/23 09:06:54;;;;;;;41.50;23.13;;;3.90;99.90;;;;;;5048317;28;20210;-67
2023/01/23 09:09:21;;;;;;;45.30;22.67;;;3.90;99.90;;;;;;5043228;28;20309;-67
2023/01/23 09:11:48;;;;;;;48.07;22.83;;;3.90;99.90;;;;;;5053140;28;20213;-67
2023/01/23 09:14:14;;;;;;;40.93;22.40;;;4.00;99.90;;;;;;5048445;28;20215;-67
2023/01/23 09:16:41;;;;;;;45.17;21.97;;;4.10;99.90;;;;;;5047638;28;20229;-67
2023/01/23 09:19:10;;;;;;;45.87;21.00;;;4.10;99.90;;;;;;5042323;28;20320;-67
2023/01/23 09:21:37;;;;;;;46.53;21.80;;;4.10;99.90;;;;;;5048858;28;20206;-70
2023/01/23 09:24:04;;;;;;;42.53;21.60;;;4.20;99.90;;;;;;5047880;28;20306;-68
2023/01/23 09:26:31;;;;;;;44.67;21.57;;;4.20;99.90;;;;;;5052661;28;20301;-68
2023/01/23 09:28:58;;;;;;;38.03;21.67;;;4.20;99.90;;;;;;5046329;28;20674;-67
2023/01/23 09:31:24;;;;;;;39.73;21.03;;;4.30;99.90;;;;;;5042752;28;20202;-68
2023/01/23 09:33:51;;;;;;;40.30;20.97;;;4.30;99.90;;;;;;5035152;28;20228;-68
2023/01/23 09:36:18;;;;;;;41.20;20.63;;;4.30;99.90;;;;;;5045286;28;20261;-68
2023/01/23 09:38:53;;;;;;;45.33;22.40;;;4.40;99.90;;;;;;5045600;28;20229;-67
2023/01/23 09:41:24;;;;;;;40.70;21.00;;;4.40;99.90;;;;;;5051661;28;20237;-68
2023/01/23 09:44:06;;;;;;;43.40;22.17;;;4.40;99.90;;;;;;5049011;28;20206;-70
2023/01/23 09:46:53;;;;;;;38.93;20.73;;;4.50;99.90;;;;;;5030413;28;20238;-69
2023/01/23 09:49:26;;;;;;;42.63;22.00;;;4.50;99.90;;;;;;5045991;28;20244;-67
2023/01/23 09:52:10;;;;;;;42.27;21.33;;;4.60;99.90;;;;;;5045601;28;20211;-67
2023/01/23 09:54:45;;;;;;;41.23;21.53;;;4.70;99.90;;;;;;5046866;28;20278;-67
2023/01/23 09:57:19;;;;;;;40.13;20.30;;;4.70;99.90;;;;;;5043017;28;20281;-67
2023/01/23 10:00:03;;;;;;;38.40;20.97;;;4.80;99.90;;;;;;5053386;28;20301;-68
2023/01/23 10:02:30;;;;;;;37.00;20.37;;;4.80;99.90;;;;;;5031466;28;20242;-67
2023/01/23 10:04:58;;;;;;;35.37;19.50;;;4.80;99.90;;;;;;5041177;28;20292;-67
2023/01/23 10:07:37;;;;;;;35.00;19.13;;;4.80;99.90;;;;;;5046060;28;20223;-69
2023/01/23 10:10:16;;;;;;;36.97;20.13;;;4.90;99.90;;;;;;5049473;28;20204;-67
2023/01/23 10:12:53;;;;;;;34.63;20.30;;;4.90;99.90;;;;;;5042481;28;20226;-67
2023/01/23 10:15:41;;;;;;;40.27;20.07;;;4.90;99.90;;;;;;5047213;28;20216;-67
2023/01/23 10:18:46;;;;;;;37.07;19.87;;;4.90;99.90;;;;;;5045222;28;20304;-68
2023/01/23 10:21:51;;;;;;;39.67;18.87;;;5.00;99.90;;;;;;5043671;28;20214;-68
2023/01/23 10:24:38;;;;;;;34.60;19.63;;;5.00;99.90;;;;;;5045563;28;20246;-67
2023/01/23 10:27:40;;;;;;;36.50;20.20;;;5.10;99.90;;;;;;5046456;28;20220;-68
2023/01/23 10:30:28;;;;;;;36.50;18.87;;;5.00;99.90;;;;;;5040633;28;20206;-67
2023/01/23 10:33:00;;;;;;;32.77;17.87;;;5.00;99.90;;;;;;5015244;28;20224;-68
2023/01/23 10:35:49;;;;;;;38.10;19.50;;;5.10;99.90;;;;;;5042376;28;20295;-69
2023/01/23 10:38:24;;;;;;;36.43;18.90;;;5.20;99.90;;;;;;5031179;28;20642;-68
2023/01/23 10:43:37;;;;;;;32.80;18.63;;;5.30;99.90;;;;;;5040673;28;20219;-67
2023/01/23 10:46:20;;;;;;;30.97;18.70;;;5.30;99.90;;;;;;5049647;28;20307;-67
2023/01/23 10:48:53;;;;;;;30.43;16.93;;;5.40;99.90;;;;;;5046673;28;20232;-68
2023/01/23 10:51:32;;;;;;;30.73;17.60;;;5.40;99.90;;;;;;5041299;28;20554;-68
2023/01/23 10:54:19;;;;;;;34.60;18.10;;;5.40;99.90;;;;;;5047831;28;20237;-69
2023/01/23 10:57:17;;;;;;;34.30;18.10;;;5.40;99.90;;;;;;5045593;28;20663;-68
2023/01/23 11:00:03;;;;;;;29.17;18.07;;;5.40;99.90;;;;;;5051410;28;20304;-68
2023/01/23 11:02:33;;;;;;;33.43;17.83;;;5.50;99.90;;;;;;5042066;28;20278;-69
2023/01/23 11:05:03;;;;;;;31.40;17.93;;;5.50;99.90;;;;;;5040716;28;20695;-68
2023/01/23 11:07:35;;;;;;;30.57;17.60;;;5.50;99.90;;;;;;5051131;28;20679;-68
2023/01/23 11:10:20;;;;;;;28.27;18.07;;;5.50;99.90;;;;;;5050649;28;20208;-67
2023/01/23 11:12:49;;;;;;;30.37;18.40;;;5.50;99.90;;;;;;5049639;28;20213;-68
2023/01/23 11:15:24;;;;;;;30.43;17.27;;;5.50;99.90;;;;;;5050734;28;20199;-67
2023/01/23 11:17:53;;;;;;;33.27;17.40;;;5.60;99.90;;;;;;5049425;28;20223;-68
2023/01/23 11:20:30;;;;;;;35.20;18.43;;;5.60;99.90;;;;;;5033583;28;20207;-68
2023/01/23 11:23:00;;;;;;;31.40;18.13;;;5.50;99.90;;;;;;5049976;28;20250;-68
2023/01/23 11:25:36;;;;;;;32.20;18.50;;;5.50;99.90;;;;;;5048706;28;20239;-69
2023/01/23 11:28:17;;;;;;;34.90;19.00;;;5.50;99.90;;;;;;5049877;28;20725;-67
2023/01/23 11:30:48;;;;;;;32.83;18.47;;;5.60;99.90;;;;;;5043775;28;20209;-67
2023/01/23 11:33:46;;;;;;;33.70;19.47;;;5.50;99.90;;;;;;5035211;28;20791;-67
2023/01/23 11:36:16;;;;;;;31.33;19.20;;;5.50;99.90;;;;;;5050642;28;20214;-68
2023/01/23 11:39:03;;;;;;;28.80;17.97;;;5.50;99.90;;;;;;5049597;28;20599;-69
2023/01/23 11:41:33;;;;;;;32.43;17.90;;;5.50;99.90;;;;;;5049317;28;20239;-68
2023/01/23 11:44:05;;;;;;;35.43;18.97;;;5.50;99.90;;;;;;5032534;28;20641;-68
2023/01/23 11:47:12;;;;;;;29.63;17.93;;;5.50;99.90;;;;;;5045013;28;20194;-67
2023/01/23 11:50:09;;;;;;;35.17;19.57;;;5.50;99.90;;;;;;5046978;28;20235;-67
2023/01/23 11:52:52;;;;;;;33.17;18.80;;;5.60;99.90;;;;;;5030939;28;20228;-68
2023/01/23 11:55:33;;;;;;;33.87;18.37;;;5.60;99.90;;;;;;5051924;28;20581;-68
2023/01/23 11:58:30;;;;;;;29.37;18.67;;;5.70;99.90;;;;;;5051723;28;20263;-69
2023/01/23 12:01:18;;;;;;;32.13;18.30;;;5.70;99.90;;;;;;5047571;28;20219;-69
2023/01/23 12:04:17;;;;;;;32.20;17.67;;;5.80;99.90;;;;;;5047684;28;20664;-69
2023/01/23 12:07:07;;;;;;;31.10;17.03;;;5.80;99.90;;;;;;5051356;28;20221;-68
2023/01/23 12:09:41;;;;;;;31.23;17.77;;;5.80;99.90;;;;;;5043281;28;20554;-67
2023/01/23 12:12:25;;;;;;;32.00;18.90;;;5.90;99.90;;;;;;5027157;28;20681;-69
2023/01/23 12:15:04;;;;;;;29.67;17.70;;;6.00;99.90;;;;;;5052558;28;20661;-67
2023/01/23 12:17:40;;;;;;;29.70;17.07;;;6.00;99.90;;;;;;5044167;28;20696;-69
2023/01/23 12:20:36;;;;;;;29.27;16.70;;;6.10;99.90;;;;;;5036930;28;20298;-68
2023/01/23 12:23:26;;;;;;;28.07;16.57;;;6.10;99.90;;;;;;5047775;28;20205;-67
2023/01/23 12:26:10;;;;;;;31.07;17.97;;;6.10;99.90;;;;;;5044256;28;20201;-68
2023/01/23 12:28:59;;;;;;;27.67;17.07;;;6.10;99.90;;;;;;5032084;28;20236;-68
2023/01/23 12:31:36;;;;;;;27.50;17.30;;;6.00;99.90;;;;;;5045313;28;20263;-67
2023/01/23 12:34:35;;;;;;;30.80;16.90;;;6.00;99.90;;;;;;5053586;28;20618;-68
2023/01/23 12:37:18;;;;;;;28.30;17.50;;;6.10;99.90;;;;;;5050033;28;20674;-68
2023/01/23 12:40:08;;;;;;;32.23;16.60;;;6.10;99.90;;;;;;5030793;28;20226;-69
2023/01/23 12:42:53;;;;;;;29.00;16.90;;;6.10;99.90;;;;;;5047541;28;20235;-68
2023/01/23 12:45:26;;;;;;;28.17;16.77;;;6.10;99.90;;;;;;5050509;28;20231;-69
2023/01/23 12:48:11;;;;;;;29.03;16.53;;;6.20;99.90;;;;;;5044519;28;20626;-66
2023/01/23 12:51:04;;;;;;;28.10;16.37;;;6.20;99.90;;;;;;5051045;28;20208;-68
2023/01/23 12:53:36;;;;;;;27.20;16.67;;;6.20;99.90;;;;;;5051562;28;20209;-68
2023/01/23 12:56:26;;;;;;;26.43;17.00;;;6.20;99.90;;;;;;5043156;28;20621;-69
2023/01/23 12:59:47;;;;;;;28.27;17.40;;;6.30;99.90;;;;;;5039803;28;20205;-69
2023/01/23 13:02:28;;;;;;;25.20;16.43;;;6.20;99.90;;;;;;4990239;28;20226;-69
2023/01/23 13:05:26;;;;;;;26.57;15.83;;;6.20;99.90;;;;;;5005653;28;20202;-69